Neponset, Illinois
Current Conditions -  °F | °C
As of 2:15 AM on Thursday 27 Nov 2014 (Local Time) from KC75 Reporting Station
Haze Haze  
Wind Chill: 15°   Ceiling: 10000
Heat Index: 21°   Visibility: 5mi
Dew Point: 17°   Wind: 5mph
Humidity: 85%   Direction: 310°NW
Pressure: 30.29"   Gusts: NA
Location:  41.3°N, 89.79°W
Report Text: KC75 270815Z AUTO 31004KT 5SM BR OVC100 M06/M08 A3029 RMK AO2 T10601081
Loading
Personal Weather Stations






























Interactive Weather Map New forecast layout! Learn more

10-Day Weather Forecast

Advertisements
Track Severe Weather on mobile